createdAt,value
2022-09-15T00:00:32.655Z,62.90
2022-09-15T00:02:59.570Z,62.68
2022-09-15T00:05:26.597Z,62.98
2022-09-15T00:07:53.442Z,63.06
2022-09-15T00:10:20.344Z,62.64
2022-09-15T00:12:48.675Z,62.50
2022-09-15T00:15:17.707Z,62.14
2022-09-15T00:17:49.823Z,63.20
2022-09-15T00:20:18.621Z,62.22
2022-09-15T00:22:45.609Z,62.26
2022-09-15T00:25:15.361Z,63.00
2022-09-15T00:27:42.312Z,63.98
2022-09-15T00:30:09.589Z,64.86
2022-09-15T00:32:36.440Z,64.92
2022-09-15T00:35:05.172Z,64.94
2022-09-15T00:37:33.594Z,64.83
2022-09-15T00:40:00.486Z,64.87
2022-09-15T00:42:27.378Z,64.65
2022-09-15T00:45:00.844Z,64.90
2022-09-15T00:47:38.859Z,64.77
2022-09-15T00:50:11.191Z,65.67
2022-09-15T00:52:47.952Z,65.72
2022-09-15T00:55:17.435Z,65.84
2022-09-15T00:58:04.249Z,66.68
2022-09-15T01:00:31.163Z,67.44
2022-09-15T01:02:59.142Z,67.69
2022-09-15T01:05:32.988Z,67.86
2022-09-15T01:08:21.997Z,67.71
2022-09-15T01:10:49.277Z,66.99
2022-09-15T01:13:16.461Z,66.53
2022-09-15T01:16:21.636Z,66.17
2022-09-15T01:18:54.357Z,66.66
2022-09-15T01:21:27.092Z,66.60
2022-09-15T01:24:06.099Z,66.74
2022-09-15T01:26:56.535Z,67.00
2022-09-15T01:29:42.115Z,66.91
2022-09-15T01:32:35.452Z,66.62
2022-09-15T01:35:17.358Z,66.68
2022-09-15T01:37:50.290Z,66.94
2022-09-15T01:40:18.986Z,67.20
2022-09-15T01:42:48.416Z,67.15
2022-09-15T01:45:23.636Z,67.66
2022-09-15T01:47:54.547Z,67.67
2022-09-15T01:50:28.766Z,68.06
2022-09-15T01:53:02.382Z,67.67
2022-09-15T01:55:52.165Z,67.83
2022-09-15T01:58:19.695Z,67.54
2022-09-15T02:00:53.600Z,67.25
2022-09-15T02:03:27.527Z,66.98
2022-09-15T02:06:02.822Z,66.82
2022-09-15T02:08:47.635Z,66.34
2022-09-15T02:11:21.026Z,65.91
2022-09-15T02:14:17.733Z,66.09
2022-09-15T02:16:49.453Z,66.02
2022-09-15T02:19:31.682Z,65.89
2022-09-15T02:22:10.670Z,66.40
2022-09-15T02:24:45.832Z,65.98
2022-09-15T02:27:18.406Z,65.98
2022-09-15T02:29:48.895Z,65.79
2022-09-15T02:32:18.868Z,66.07
2022-09-15T02:34:50.524Z,66.43
2022-09-15T02:37:21.340Z,66.34
2022-09-15T02:39:53.576Z,66.28
2022-09-15T02:42:28.623Z,66.74
2022-09-15T02:44:56.052Z,66.79
2022-09-15T02:47:24.092Z,66.62
2022-09-15T02:49:51.312Z,66.42
2022-09-15T02:52:18.208Z,66.18
2022-09-15T02:54:45.105Z,66.40
2022-09-15T02:57:14.044Z,65.67
2022-09-15T03:00:02.957Z,65.61
2022-09-15T03:02:34.625Z,65.87
2022-09-15T03:05:02.548Z,65.82
2022-09-15T03:07:30.470Z,65.38
2022-09-15T03:09:57.767Z,65.99
2022-09-15T03:12:25.614Z,64.96
2022-09-15T03:14:52.546Z,64.21
2022-09-15T03:17:19.553Z,64.82
2022-09-15T03:19:46.439Z,64.77
2022-09-15T03:22:13.370Z,65.45
2022-09-15T03:24:42.317Z,65.62
2022-09-15T03:27:09.418Z,65.76
2022-09-15T03:29:36.279Z,66.24
2022-09-15T03:32:03.155Z,66.86
2022-09-15T03:34:30.041Z,67.13
2022-09-15T03:36:56.890Z,67.45
2022-09-15T03:39:24.363Z,68.79
2022-09-15T03:41:51.258Z,69.75
2022-09-15T03:44:19.285Z,70.47
2022-09-15T03:46:46.709Z,70.87
2022-09-15T03:49:15.113Z,70.88
2022-09-15T03:51:42.188Z,70.92
2022-09-15T03:54:09.206Z,70.38
2022-09-15T03:56:37.642Z,69.68
2022-09-15T03:59:05.847Z,69.45
2022-09-15T04:01:32.846Z,68.73
2022-09-15T04:04:00.484Z,68.43
2022-09-15T04:06:27.555Z,67.49
2022-09-15T04:08:55.221Z,66.61
2022-09-15T04:11:22.915Z,65.72
2022-09-15T04:13:50.502Z,65.35
2022-09-15T04:16:19.828Z,64.90
2022-09-15T04:18:46.955Z,64.79
2022-09-15T04:21:16.407Z,64.13
2022-09-15T04:23:44.310Z,63.85
2022-09-15T04:26:36.082Z,63.31
2022-09-15T04:29:05.255Z,63.36
2022-09-15T04:31:33.222Z,63.26
2022-09-15T04:34:01.280Z,61.99
2022-09-15T04:36:29.767Z,62.81
2022-09-15T04:38:57.235Z,61.95
2022-09-15T04:41:25.872Z,62.49
2022-09-15T04:43:53.303Z,63.28
2022-09-15T04:46:20.849Z,62.83
2022-09-15T04:48:49.403Z,62.62
2022-09-15T04:51:19.673Z,63.87
2022-09-15T04:53:48.988Z,64.37
2022-09-15T04:56:20.675Z,63.83
2022-09-15T04:58:50.459Z,63.98
2022-09-15T05:01:21.311Z,64.06
2022-09-15T05:03:48.919Z,64.29
2022-09-15T05:06:20.156Z,64.16
2022-09-15T05:08:51.502Z,63.49
2022-09-15T05:11:19.427Z,63.36
2022-09-15T05:13:47.075Z,63.27
2022-09-15T05:16:17.072Z,62.71
2022-09-15T05:18:45.544Z,62.39
2022-09-15T05:21:21.074Z,61.80
2022-09-15T05:23:49.450Z,61.32
2022-09-15T05:26:19.826Z,60.62
2022-09-15T05:28:46.749Z,60.51
2022-09-15T05:31:20.422Z,59.48
2022-09-15T05:33:53.895Z,58.46
2022-09-15T05:36:25.955Z,58.03
2022-09-15T05:38:54.297Z,57.49
2022-09-15T05:41:23.005Z,56.74
2022-09-15T05:43:51.043Z,56.57
2022-09-15T05:46:20.661Z,56.10
2022-09-15T05:48:48.981Z,55.51
2022-09-15T05:51:15.986Z,55.25
2022-09-15T05:53:42.919Z,55.09
2022-09-15T05:56:12.164Z,54.41
2022-09-15T05:58:44.163Z,53.62
2022-09-15T06:01:23.140Z,54.06
2022-09-15T06:03:50.734Z,53.88
2022-09-15T06:06:18.440Z,53.98
2022-09-15T06:08:52.815Z,53.55
2022-09-15T06:11:25.090Z,54.16
2022-09-15T06:13:52.003Z,53.70
2022-09-15T06:16:21.790Z,53.76
2022-09-15T06:18:51.478Z,54.31
2022-09-15T06:21:26.250Z,54.57
2022-09-15T06:24:00.984Z,55.30
2022-09-15T06:26:29.485Z,54.82
2022-09-15T06:28:59.325Z,54.52
2022-09-15T06:31:28.384Z,54.29
2022-09-15T06:33:57.010Z,54.59
2022-09-15T06:36:27.283Z,54.23
2022-09-15T06:38:54.811Z,53.99
2022-09-15T06:41:21.862Z,54.14
2022-09-15T06:43:49.460Z,54.08
2022-09-15T06:46:20.876Z,53.54
2022-09-15T06:48:48.752Z,52.95
2022-09-15T06:51:36.196Z,53.74
2022-09-15T06:54:04.388Z,53.91
2022-09-15T06:56:34.563Z,52.99
2022-09-15T06:59:04.968Z,51.43
2022-09-15T07:01:32.469Z,51.32
2022-09-15T07:04:02.880Z,50.90
2022-09-15T07:06:32.186Z,50.50
2022-09-15T07:08:59.603Z,49.38
2022-09-15T07:11:27.238Z,49.21
2022-09-15T07:13:54.149Z,48.90
2022-09-15T07:16:22.072Z,48.12
2022-09-15T07:18:50.045Z,48.86
2022-09-15T07:21:20.317Z,48.19
2022-09-15T07:23:49.305Z,48.13
2022-09-15T07:26:29.976Z,46.22
2022-09-15T07:28:59.791Z,47.02
2022-09-15T07:31:30.237Z,46.42
2022-09-15T07:33:59.361Z,46.24
2022-09-15T07:36:26.749Z,45.50
2022-09-15T07:38:53.812Z,44.63
2022-09-15T07:41:25.045Z,45.21
2022-09-15T07:43:54.097Z,45.24
2022-09-15T07:46:22.597Z,45.58
2022-09-15T07:48:52.090Z,44.37
2022-09-15T07:51:19.832Z,43.08
2022-09-15T07:53:48.402Z,42.66
2022-09-15T07:56:20.032Z,42.56
2022-09-15T07:58:48.217Z,41.29
2022-09-15T08:01:16.533Z,41.47
2022-09-15T08:03:51.411Z,41.43
2022-09-15T08:09:05.872Z,40.92
2022-09-15T08:11:32.816Z,40.83
2022-09-15T08:14:02.860Z,40.32
2022-09-15T08:16:30.744Z,40.31
2022-09-15T08:18:57.762Z,39.94
2022-09-15T08:21:42.196Z,40.20
2022-09-15T08:24:10.638Z,40.13
2022-09-15T08:26:38.930Z,40.06
2022-09-15T08:29:10.372Z,39.73
2022-09-15T08:31:40.113Z,39.28
2022-09-15T08:34:07.131Z,38.09
2022-09-15T08:36:34.376Z,37.81
2022-09-15T08:39:02.569Z,37.64
2022-09-15T08:41:33.935Z,37.44
2022-09-15T08:44:22.816Z,37.04
2022-09-15T08:47:20.856Z,37.33
2022-09-15T08:50:32.130Z,37.07
2022-09-15T08:53:07.848Z,37.23
2022-09-15T08:55:43.664Z,36.62
2022-09-15T08:58:36.273Z,36.55
2022-09-15T09:01:12.195Z,36.72
2022-09-15T09:04:13.720Z,36.27
2022-09-15T09:07:10.720Z,36.06
2022-09-15T09:09:57.775Z,35.52
2022-09-15T09:13:02.129Z,35.80
2022-09-15T09:15:36.374Z,35.15
2022-09-15T09:18:12.682Z,34.35
2022-09-15T09:20:52.974Z,35.00
2022-09-15T09:23:26.318Z,35.04
2022-09-15T09:25:53.477Z,34.76
2022-09-15T09:28:30.835Z,34.92
2022-09-15T09:31:04.183Z,35.14
2022-09-15T09:33:51.520Z,35.59
2022-09-15T09:36:18.615Z,34.44
2022-09-15T09:38:48.274Z,33.09
2022-09-15T09:41:21.695Z,33.55
2022-09-15T09:43:53.233Z,34.17
2022-09-15T09:46:23.062Z,33.43
2022-09-15T09:49:35.621Z,33.29
2022-09-15T09:52:04.788Z,33.62
2022-09-15T09:54:33.990Z,33.71
2022-09-15T09:57:40.998Z,33.54
2022-09-15T10:00:40.864Z,32.86
2022-09-15T10:03:18.386Z,32.98
2022-09-15T10:06:00.048Z,32.66
2022-09-15T10:08:27.532Z,33.03
2022-09-15T10:11:00.569Z,32.36
2022-09-15T10:13:27.473Z,32.94
2022-09-15T10:15:57.990Z,32.05
2022-09-15T10:18:38.380Z,31.97
2022-09-15T10:21:08.599Z,32.19
2022-09-15T10:23:36.319Z,31.97
2022-09-15T10:26:15.159Z,30.61
2022-09-15T10:28:43.388Z,30.94
2022-09-15T10:31:26.728Z,31.29
2022-09-15T10:33:53.707Z,30.91
2022-09-15T10:36:29.865Z,30.86
2022-09-15T10:39:21.491Z,31.06
2022-09-15T10:42:10.137Z,31.25
2022-09-15T10:44:54.761Z,30.03
2022-09-15T10:47:40.676Z,30.32
2022-09-15T10:50:21.223Z,29.54
2022-09-15T10:53:20.457Z,30.07
2022-09-15T10:55:58.730Z,30.44
2022-09-15T10:58:48.963Z,29.63
2022-09-15T11:01:19.051Z,29.84
2022-09-15T11:03:51.974Z,29.15
2022-09-15T11:06:32.828Z,28.61
2022-09-15T11:09:23.644Z,28.15
2022-09-15T11:11:51.697Z,28.57
2022-09-15T11:14:44.733Z,28.24
2022-09-15T11:17:30.498Z,28.45
2022-09-15T11:20:25.436Z,28.94
2022-09-15T11:22:54.995Z,29.33
2022-09-15T11:25:25.790Z,28.84
2022-09-15T11:28:04.571Z,29.40
2022-09-15T11:30:59.333Z,28.74
2022-09-15T11:33:47.964Z,26.32
2022-09-15T11:36:21.369Z,27.33
2022-09-15T11:38:57.693Z,26.83
2022-09-15T11:41:34.905Z,26.56
2022-09-15T11:44:43.396Z,26.56
2022-09-15T11:47:31.817Z,26.38
2022-09-15T11:50:09.971Z,25.22
2022-09-15T11:53:00.862Z,25.50
2022-09-15T11:56:19.910Z,25.99
2022-09-15T11:59:12.411Z,25.54
2022-09-15T12:01:59.588Z,25.28
2022-09-15T12:04:32.060Z,25.66
2022-09-15T12:07:14.559Z,24.91
2022-09-15T12:09:44.116Z,25.46
2022-09-15T12:12:22.818Z,25.17
2022-09-15T12:14:52.946Z,24.89
2022-09-15T12:17:37.622Z,24.74
2022-09-15T12:20:14.617Z,24.51
2022-09-15T12:22:47.938Z,25.26
2022-09-15T12:25:27.510Z,25.43
2022-09-15T12:28:22.180Z,25.20
2022-09-15T12:31:09.964Z,24.99
2022-09-15T12:33:42.861Z,25.27
2022-09-15T12:36:45.795Z,25.26
2022-09-15T12:39:18.658Z,24.97
2022-09-15T12:42:10.235Z,25.04
2022-09-15T12:44:40.663Z,24.78
2022-09-15T12:47:20.883Z,25.29
2022-09-15T12:49:50.477Z,25.81
2022-09-15T12:52:20.532Z,26.33
2022-09-15T12:54:54.672Z,26.34
2022-09-15T12:57:32.027Z,26.57
2022-09-15T13:00:23.846Z,26.44
2022-09-15T13:02:51.574Z,26.79
2022-09-15T13:05:43.118Z,26.80
2022-09-15T13:08:34.587Z,27.04
2022-09-15T13:11:20.898Z,27.07
2022-09-15T13:13:50.926Z,27.66
2022-09-15T13:17:10.372Z,27.23
2022-09-15T13:19:44.380Z,27.71
2022-09-15T13:22:11.297Z,27.67
2022-09-15T13:24:40.917Z,27.77
2022-09-15T13:27:08.958Z,27.88
2022-09-15T13:29:48.337Z,28.31
2022-09-15T13:32:18.427Z,28.51
2022-09-15T13:35:06.071Z,28.14
2022-09-15T13:38:08.385Z,28.66
2022-09-15T14:27:29.789Z,30.27
2022-09-15T14:29:58.622Z,29.92
2022-09-15T14:32:28.990Z,29.68
2022-09-15T14:35:04.029Z,30.01
2022-09-15T14:37:34.833Z,29.55
2022-09-15T14:40:17.353Z,29.76
2022-09-15T14:42:44.694Z,29.55
2022-09-15T14:48:01.473Z,29.82
2022-09-15T14:50:33.219Z,29.75
2022-09-15T14:53:10.611Z,29.91
2022-09-15T14:55:55.841Z,30.16
2022-09-15T14:58:32.641Z,30.23
2022-09-15T15:01:30.559Z,30.22
2022-09-15T15:04:18.928Z,29.98
2022-09-15T15:07:08.215Z,30.58
2022-09-15T15:09:49.250Z,30.62
2022-09-15T15:12:35.697Z,30.65
2022-09-15T15:15:03.193Z,30.47
2022-09-15T15:17:49.815Z,29.99
2022-09-15T15:20:23.625Z,29.83
2022-09-15T15:23:25.399Z,29.56
2022-09-15T15:25:53.959Z,29.49
2022-09-15T15:28:35.905Z,29.91
2022-09-15T15:31:07.629Z,30.10
2022-09-15T15:33:34.726Z,30.00
2022-09-15T15:36:09.121Z,30.14
2022-09-15T15:38:48.304Z,30.28
2022-09-15T15:45:53.248Z,30.26
2022-09-15T15:49:11.357Z,31.15
2022-09-15T15:51:38.204Z,30.80
2022-09-15T15:54:05.702Z,31.26
2022-09-15T15:59:23.326Z,31.11
2022-09-15T16:01:53.563Z,32.32
2022-09-15T16:04:20.513Z,31.73
2022-09-15T16:06:47.861Z,32.20
2022-09-15T16:09:17.297Z,32.62
2022-09-15T16:11:44.276Z,33.81
2022-09-15T16:14:13.530Z,34.23
2022-09-15T16:16:40.995Z,34.82
2022-09-15T16:19:08.655Z,35.14
2022-09-15T16:21:39.794Z,36.30
2022-09-15T16:24:12.698Z,37.63
2022-09-15T16:26:40.507Z,36.84
2022-09-15T16:36:15.442Z,39.45
2022-09-15T16:38:43.057Z,39.47
2022-09-15T16:41:12.777Z,39.00
2022-09-15T16:43:39.685Z,40.99
2022-09-15T16:46:08.708Z,40.87
2022-09-15T16:48:35.639Z,41.52
2022-09-15T16:51:20.985Z,41.73
2022-09-15T16:53:52.030Z,42.43
2022-09-15T16:56:19.455Z,42.26
2022-09-15T16:58:46.376Z,42.56
2022-09-15T17:01:18.905Z,43.10
2022-09-15T17:03:46.733Z,42.90
2022-09-15T17:06:16.376Z,42.49
2022-09-15T17:08:44.011Z,43.02
2022-09-15T17:11:16.512Z,42.42
2022-09-15T17:13:44.872Z,42.79
2022-09-15T17:16:14.915Z,43.23
2022-09-15T17:18:44.108Z,43.66
2022-09-15T17:21:12.375Z,43.72
2022-09-15T17:23:42.650Z,43.54
2022-09-15T17:26:12.936Z,43.50
2022-09-15T17:28:40.897Z,43.53
2022-09-15T17:31:13.503Z,43.67
2022-09-15T17:33:40.751Z,43.75
2022-09-15T17:36:08.182Z,43.77
2022-09-15T17:38:35.279Z,44.08
2022-09-15T17:41:03.004Z,43.75
2022-09-15T17:43:32.013Z,44.37
2022-09-15T17:46:01.860Z,44.44
2022-09-15T17:48:28.871Z,44.68
2022-09-15T17:50:55.751Z,44.93
2022-09-15T17:53:26.858Z,45.50
2022-09-15T17:55:55.560Z,45.46
2022-09-15T17:58:23.986Z,45.64
2022-09-15T18:00:52.420Z,46.10
2022-09-15T18:03:22.293Z,46.04
2022-09-15T18:05:50.351Z,45.28
2022-09-15T18:08:18.545Z,45.80
2022-09-15T18:10:46.053Z,46.21
2022-09-15T18:13:15.648Z,46.49
2022-09-15T18:15:44.351Z,45.89
2022-09-15T18:18:20.782Z,45.27
2022-09-15T18:20:54.079Z,45.88
2022-09-15T18:23:23.518Z,45.48
2022-09-15T18:25:53.552Z,46.21
2022-09-15T18:28:20.846Z,46.22
2022-09-15T18:30:51.956Z,47.92
2022-09-15T18:33:26.846Z,47.64
2022-09-15T18:35:56.312Z,46.93
2022-09-15T18:38:23.988Z,47.25
2022-09-15T18:40:57.949Z,47.70
2022-09-15T18:43:30.200Z,46.65
2022-09-15T18:46:01.314Z,47.22
2022-09-15T18:48:29.263Z,47.15
2022-09-15T18:50:57.864Z,46.50
2022-09-15T18:53:26.097Z,47.04
2022-09-15T18:55:53.029Z,47.16
2022-09-15T18:58:22.421Z,46.99
2022-09-15T19:00:54.252Z,46.73
2022-09-15T19:03:22.222Z,46.52
2022-09-15T19:05:51.262Z,45.99
2022-09-15T19:08:19.946Z,46.37
2022-09-15T19:10:57.816Z,47.52
2022-09-15T19:13:25.189Z,47.76
2022-09-15T19:15:53.688Z,48.35
2022-09-15T19:18:24.562Z,48.32
2022-09-15T19:21:05.705Z,47.94
2022-09-15T19:23:32.864Z,47.84
2022-09-15T19:26:11.601Z,49.43
2022-09-15T19:28:39.466Z,50.38
2022-09-15T19:31:06.925Z,50.64
2022-09-15T19:33:34.855Z,50.47
2022-09-15T19:36:26.786Z,50.30
2022-09-15T19:38:56.460Z,48.95
2022-09-15T19:41:27.365Z,48.94
2022-09-15T19:46:40.752Z,48.80
2022-09-15T19:49:08.220Z,48.58
2022-09-15T19:51:35.251Z,49.35
2022-09-15T19:54:02.170Z,48.82
2022-09-15T19:56:30.123Z,49.48
2022-09-15T19:58:59.149Z,49.45
2022-09-15T20:01:29.778Z,49.72
2022-09-15T20:03:58.596Z,50.46
2022-09-15T20:06:28.962Z,50.64
2022-09-15T20:08:59.467Z,51.00
2022-09-15T20:11:35.949Z,50.73
2022-09-15T20:14:03.802Z,51.65
2022-09-15T20:16:34.099Z,51.85
2022-09-15T20:19:03.715Z,51.25
2022-09-15T20:24:20.092Z,50.65
2022-09-15T20:26:48.640Z,50.97
2022-09-15T20:29:17.469Z,52.71
2022-09-15T20:31:46.373Z,53.03
2022-09-15T20:34:20.550Z,53.13
2022-09-15T20:36:50.103Z,53.42
2022-09-15T20:39:19.579Z,53.16
2022-09-15T20:41:48.915Z,53.69
2022-09-15T20:44:25.505Z,53.57
2022-09-15T20:46:54.166Z,53.34
2022-09-15T20:49:23.279Z,53.08
2022-09-15T20:51:59.409Z,53.13
2022-09-15T20:54:26.480Z,53.87
2022-09-15T20:56:53.401Z,53.64
2022-09-15T20:59:20.602Z,53.09
2022-09-15T21:01:47.608Z,53.21
2022-09-15T21:04:14.840Z,53.65
2022-09-15T21:06:41.772Z,53.60
2022-09-15T21:09:08.730Z,52.72
2022-09-15T21:11:35.799Z,52.12
2022-09-15T21:14:03.281Z,53.09
2022-09-15T21:16:30.532Z,52.48
2022-09-15T21:18:58.536Z,52.61
2022-09-15T21:21:28.371Z,51.72
2022-09-15T21:23:58.685Z,52.55
2022-09-15T21:26:27.820Z,52.44
2022-09-15T21:28:56.449Z,52.67
2022-09-15T21:31:26.731Z,52.83
2022-09-15T21:33:54.772Z,53.21
2022-09-15T21:36:25.028Z,53.94
2022-09-15T21:38:54.763Z,54.46
2022-09-15T21:41:26.022Z,54.05
2022-09-15T21:43:55.599Z,54.69
2022-09-15T21:46:25.920Z,54.46
2022-09-15T21:48:53.420Z,54.98
2022-09-15T21:51:24.508Z,55.21
2022-09-15T21:53:56.306Z,55.90
2022-09-15T21:56:24.620Z,55.16
2022-09-15T21:58:51.775Z,55.13
2022-09-15T22:01:21.546Z,55.10
2022-09-15T22:03:51.533Z,56.28
2022-09-15T22:06:20.978Z,57.67
2022-09-15T22:08:48.043Z,58.59
2022-09-15T22:11:15.435Z,58.77
2022-09-15T22:13:44.136Z,58.20
2022-09-15T22:16:16.660Z,57.99
2022-09-15T22:18:44.015Z,57.64
2022-09-15T22:21:14.931Z,57.27
2022-09-15T22:23:43.200Z,57.26
2022-09-15T22:26:12.941Z,56.22
2022-09-15T22:28:40.218Z,56.27
2022-09-15T22:31:10.390Z,57.33
2022-09-15T22:33:39.570Z,58.33
2022-09-15T22:36:13.254Z,59.68
2022-09-15T22:38:40.175Z,60.13
2022-09-15T22:41:09.468Z,60.55
2022-09-15T22:43:38.346Z,60.05
2022-09-15T22:46:06.383Z,59.57
2022-09-15T22:48:33.576Z,59.83
2022-09-15T22:51:00.918Z,58.95
2022-09-15T22:53:27.959Z,59.08
2022-09-15T22:56:05.438Z,59.21
2022-09-15T22:58:36.371Z,58.83
2022-09-15T23:01:04.366Z,57.98
2022-09-15T23:03:31.721Z,57.49
2022-09-15T23:05:59.779Z,57.52
2022-09-15T23:08:26.805Z,57.17
2022-09-15T23:10:53.839Z,56.96
2022-09-15T23:13:20.683Z,57.22
2022-09-15T23:15:49.122Z,57.05
2022-09-15T23:18:17.840Z,58.00
2022-09-15T23:20:45.400Z,59.18
2022-09-15T23:23:12.308Z,59.87
2022-09-15T23:25:39.126Z,59.74
2022-09-15T23:28:05.954Z,59.56
2022-09-15T23:30:32.822Z,58.99
2022-09-15T23:32:59.670Z,58.63
2022-09-15T23:35:26.534Z,58.18
2022-09-15T23:37:53.379Z,59.21
2022-09-15T23:40:20.498Z,59.89
2022-09-15T23:42:49.863Z,60.00
2022-09-15T23:45:16.730Z,59.68
2022-09-15T23:47:43.598Z,59.22
2022-09-15T23:50:10.480Z,59.07
2022-09-15T23:52:37.529Z,59.54
2022-09-15T23:55:04.871Z,59.85
2022-09-15T23:57:31.768Z,60.98
2022-09-15T23:59:58.599Z,61.41
